createdAt,value
2022-09-30T00:01:43.033Z,3.55
2022-09-30T00:04:14.951Z,3.47
2022-09-30T00:06:42.680Z,2.65
2022-09-30T00:09:13.122Z,3.30
2022-09-30T00:11:41.843Z,3.43
2022-09-30T00:14:15.250Z,3.50
2022-09-30T00:16:42.794Z,3.08
2022-09-30T00:19:10.144Z,2.60
2022-09-30T00:21:38.259Z,2.83
2022-09-30T00:24:07.507Z,2.30
2022-09-30T00:26:35.805Z,2.92
2022-09-30T00:29:03.577Z,2.35
2022-09-30T00:31:34.739Z,2.55
2022-09-30T00:34:08.732Z,2.38
2022-09-30T00:36:45.662Z,2.40
2022-09-30T00:39:22.035Z,2.60
2022-09-30T00:41:53.412Z,2.45
2022-09-30T00:45:11.022Z,2.15
2022-09-30T00:47:56.477Z,2.42
2022-09-30T00:50:37.189Z,2.35
2022-09-30T00:53:14.674Z,2.70
2022-09-30T00:55:51.953Z,2.00
2022-09-30T00:58:30.293Z,2.17
2022-09-30T01:01:00.308Z,2.50
2022-09-30T01:03:31.189Z,2.20
2022-09-30T01:05:58.853Z,2.72
2022-09-30T01:08:28.337Z,2.05
2022-09-30T01:10:55.504Z,2.75
2022-09-30T01:13:27.542Z,2.58
2022-09-30T01:16:19.751Z,2.40
2022-09-30T01:19:15.106Z,2.40
2022-09-30T01:22:01.442Z,2.45
2022-09-30T01:24:58.186Z,2.20
2022-09-30T01:27:47.058Z,2.47
2022-09-30T01:30:22.209Z,2.83
2022-09-30T01:33:21.470Z,2.70
2022-09-30T01:35:49.102Z,2.40
2022-09-30T01:38:22.246Z,4.70
2022-09-30T01:40:53.987Z,3.42
2022-09-30T01:43:48.122Z,3.15
2022-09-30T01:46:38.919Z,3.30
2022-09-30T01:49:31.305Z,2.63
2022-09-30T01:52:07.488Z,3.10
2022-09-30T01:55:00.823Z,2.35
2022-09-30T01:58:05.775Z,2.92
2022-09-30T02:00:38.452Z,2.58
2022-09-30T02:03:27.896Z,2.97
2022-09-30T02:06:02.478Z,2.50
2022-09-30T02:08:41.665Z,3.40
2022-09-30T02:11:15.825Z,3.13
2022-09-30T02:13:50.507Z,2.92
2022-09-30T02:16:42.616Z,3.67
2022-09-30T02:19:30.197Z,2.78
2022-09-30T02:22:02.263Z,2.45
2022-09-30T02:24:38.807Z,2.90
2022-09-30T02:27:12.919Z,3.05
2022-09-30T02:29:45.911Z,3.35
2022-09-30T02:32:32.091Z,3.40
2022-09-30T02:35:19.923Z,3.75
2022-09-30T02:37:56.486Z,3.85
2022-09-30T02:40:36.682Z,3.65
2022-09-30T02:43:05.662Z,4.00
2022-09-30T02:45:50.553Z,4.25
2022-09-30T02:48:33.466Z,3.70
2022-09-30T02:51:38.079Z,3.75
2022-09-30T02:54:11.314Z,3.55
2022-09-30T02:56:50.723Z,3.78
2022-09-30T02:59:18.654Z,3.05
2022-09-30T03:01:45.945Z,2.78
2022-09-30T03:04:16.214Z,3.28
2022-09-30T03:06:43.917Z,3.38
2022-09-30T03:09:11.315Z,3.05
2022-09-30T03:11:38.790Z,3.47
2022-09-30T03:14:24.358Z,4.00
2022-09-30T03:17:19.151Z,4.25
2022-09-30T03:19:58.543Z,3.67
2022-09-30T03:22:44.525Z,3.63
2022-09-30T03:25:20.855Z,3.30
2022-09-30T03:28:06.170Z,3.25
2022-09-30T03:31:12.331Z,4.00
2022-09-30T03:33:51.832Z,4.35
2022-09-30T03:36:32.274Z,3.83
2022-09-30T03:39:02.762Z,3.67
2022-09-30T03:41:33.089Z,3.20
2022-09-30T03:44:22.356Z,3.08
2022-09-30T03:47:01.512Z,3.28
2022-09-30T03:49:34.818Z,3.53
2022-09-30T03:52:11.102Z,3.67
2022-09-30T03:55:08.058Z,3.38
2022-09-30T03:57:35.450Z,3.88
2022-09-30T04:00:04.667Z,2.80
2022-09-30T04:02:32.918Z,4.40
2022-09-30T04:05:00.009Z,3.50
2022-09-30T04:07:32.580Z,3.58
2022-09-30T04:10:01.883Z,2.90
2022-09-30T04:12:31.089Z,2.60
2022-09-30T04:14:58.291Z,2.65
2022-09-30T04:17:25.547Z,3.30
2022-09-30T04:19:52.941Z,3.13
2022-09-30T04:22:23.190Z,2.95
2022-09-30T04:24:53.524Z,3.33
2022-09-30T04:27:20.663Z,3.70
2022-09-30T04:29:47.981Z,4.53
2022-09-30T04:32:15.385Z,3.53
2022-09-30T04:34:42.557Z,4.18
2022-09-30T04:37:11.030Z,4.88
2022-09-30T04:39:38.524Z,6.55
2022-09-30T04:42:06.301Z,5.50
2022-09-30T04:44:33.413Z,4.80
2022-09-30T04:47:06.886Z,4.22
2022-09-30T04:49:58.151Z,4.18
2022-09-30T04:52:25.149Z,3.40
2022-09-30T04:54:54.117Z,3.22
2022-09-30T04:57:21.348Z,4.28
2022-09-30T04:59:51.095Z,3.17
2022-09-30T05:02:18.373Z,3.17
2022-09-30T05:04:45.774Z,3.65
2022-09-30T05:07:13.046Z,3.80
2022-09-30T05:09:40.508Z,3.90
2022-09-30T05:12:08.376Z,3.72
2022-09-30T05:14:35.752Z,3.42
2022-09-30T05:17:03.001Z,3.53
2022-09-30T05:19:30.930Z,3.97
2022-09-30T05:21:58.237Z,3.22
2022-09-30T05:24:25.422Z,3.03
2022-09-30T05:26:54.181Z,3.30
2022-09-30T05:29:21.416Z,4.80
2022-09-30T05:31:48.939Z,4.30
2022-09-30T05:34:17.022Z,4.03
2022-09-30T05:36:44.567Z,3.83
2022-09-30T05:39:11.737Z,4.60
2022-09-30T05:41:39.185Z,4.38
2022-09-30T05:44:08.777Z,5.03
2022-09-30T05:46:36.011Z,5.15
2022-09-30T05:49:03.480Z,4.78
2022-09-30T05:51:31.852Z,6.03
2022-09-30T05:54:00.921Z,6.35
2022-09-30T05:56:34.963Z,5.10
2022-09-30T05:59:02.364Z,5.20
2022-09-30T06:06:20.352Z,6.88
2022-09-30T06:08:47.987Z,6.20
2022-09-30T06:11:20.899Z,6.05
2022-09-30T06:13:48.859Z,5.00
2022-09-30T06:16:18.777Z,5.45
2022-09-30T06:18:46.830Z,5.80
2022-09-30T06:21:16.111Z,6.50
2022-09-30T06:23:47.134Z,6.03
2022-09-30T06:26:15.021Z,7.77
2022-09-30T06:28:43.290Z,6.88
2022-09-30T06:31:11.634Z,6.60
2022-09-30T06:33:39.300Z,6.43
2022-09-30T06:36:07.582Z,5.32
2022-09-30T06:42:25.197Z,4.00
2022-09-30T06:44:53.680Z,4.75
2022-09-30T06:47:25.218Z,4.00
2022-09-30T06:49:58.672Z,3.58
2022-09-30T06:52:27.278Z,5.53
2022-09-30T06:54:58.004Z,3.60
2022-09-30T06:57:27.961Z,3.13
2022-09-30T06:59:56.269Z,2.47
2022-09-30T07:02:23.578Z,3.50
2022-09-30T07:04:51.214Z,2.70
2022-09-30T07:07:20.281Z,2.58
2022-09-30T07:09:47.869Z,2.70
2022-09-30T07:12:15.402Z,4.68
2022-09-30T07:14:42.666Z,4.60
2022-09-30T07:17:10.038Z,3.60
2022-09-30T07:19:37.116Z,3.33
2022-09-30T07:22:26.031Z,2.97
2022-09-30T07:24:54.277Z,3.42
2022-09-30T07:27:22.008Z,2.90
2022-09-30T07:30:08.196Z,2.90
2022-09-30T07:32:37.642Z,2.97
2022-09-30T07:35:06.275Z,3.10
2022-09-30T07:37:36.240Z,1.77
2022-09-30T07:40:07.298Z,2.97
2022-09-30T07:42:39.524Z,2.85
2022-09-30T07:45:08.048Z,2.78
2022-09-30T07:47:35.293Z,2.38
2022-09-30T07:50:02.459Z,2.00
2022-09-30T07:52:30.454Z,3.17
2022-09-30T07:54:57.765Z,2.38
2022-09-30T07:57:24.851Z,2.40
2022-09-30T07:59:52.307Z,1.80
2022-09-30T08:02:19.746Z,3.00
2022-09-30T08:04:47.497Z,2.10
2022-09-30T08:07:17.318Z,2.40
2022-09-30T08:09:44.876Z,2.13
2022-09-30T08:12:12.243Z,2.22
2022-09-30T08:14:39.694Z,2.53
2022-09-30T08:17:07.116Z,2.20
2022-09-30T08:19:35.494Z,2.42
2022-09-30T08:24:35.560Z,2.10
2022-09-30T08:27:03.173Z,2.00
2022-09-30T08:32:18.561Z,1.80
2022-09-30T08:34:46.140Z,1.73
2022-09-30T08:37:13.900Z,1.60
2022-09-30T08:39:42.504Z,1.92
2022-09-30T08:42:43.768Z,1.88
2022-09-30T08:45:36.545Z,1.95
2022-09-30T08:48:30.292Z,2.15
2022-09-30T08:51:14.629Z,1.80
2022-09-30T08:53:46.794Z,1.85
2022-09-30T08:56:24.050Z,2.03
2022-09-30T08:58:57.310Z,2.30
2022-09-30T09:01:36.624Z,3.25
2022-09-30T09:04:06.898Z,1.83
2022-09-30T09:07:05.684Z,2.10
2022-09-30T09:10:10.487Z,1.60
2022-09-30T09:13:21.917Z,2.00
2022-09-30T09:16:08.079Z,1.75
2022-09-30T09:19:15.606Z,2.58
2022-09-30T09:21:57.436Z,2.15
2022-09-30T09:24:50.759Z,1.88
2022-09-30T09:30:15.279Z,2.13
2022-09-30T09:32:48.454Z,2.00
2022-09-30T09:35:27.924Z,1.70
2022-09-30T09:38:22.784Z,1.85
2022-09-30T09:41:11.132Z,1.85
2022-09-30T09:43:49.518Z,8.55
2022-09-30T09:46:27.067Z,5.22
2022-09-30T09:49:13.920Z,1.88
2022-09-30T09:51:48.526Z,2.42
2022-09-30T09:54:21.257Z,2.25
2022-09-30T09:56:49.039Z,2.03
2022-09-30T09:59:19.863Z,2.15
2022-09-30T10:01:54.565Z,2.35
2022-09-30T10:04:27.758Z,2.50
2022-09-30T10:07:13.420Z,2.13
2022-09-30T10:09:43.330Z,2.80
2022-09-30T10:12:13.856Z,3.55
2022-09-30T10:14:49.199Z,2.92
2022-09-30T10:17:37.462Z,2.00
2022-09-30T10:20:16.495Z,2.30
2022-09-30T10:22:44.030Z,1.90
2022-09-30T10:25:14.086Z,1.95
2022-09-30T10:27:56.979Z,2.17
2022-09-30T10:30:36.702Z,1.80
2022-09-30T10:33:04.448Z,2.00
2022-09-30T10:35:32.123Z,1.98
2022-09-30T10:38:00.723Z,1.90
2022-09-30T10:40:30.420Z,2.10
2022-09-30T10:42:58.617Z,1.80
2022-09-30T10:45:38.947Z,1.90
2022-09-30T10:48:16.832Z,1.70
2022-09-30T10:50:54.062Z,2.08
2022-09-30T10:53:31.147Z,2.10
2022-09-30T10:56:01.788Z,1.88
2022-09-30T10:58:51.279Z,2.03
2022-09-30T11:01:32.763Z,2.13
2022-09-30T11:04:22.136Z,2.20
2022-09-30T11:06:54.675Z,2.80
2022-09-30T11:09:35.197Z,1.60
2022-09-30T11:12:23.443Z,1.77
2022-09-30T11:15:16.790Z,2.03
2022-09-30T11:18:17.389Z,1.80
2022-09-30T11:20:53.429Z,1.67
2022-09-30T11:23:38.754Z,1.45
2022-09-30T11:26:18.968Z,1.60
2022-09-30T11:28:49.166Z,1.60
2022-09-30T11:31:33.048Z,1.60
2022-09-30T11:34:07.369Z,1.73
2022-09-30T11:36:56.501Z,1.83
2022-09-30T11:39:43.516Z,1.90
2022-09-30T11:42:25.476Z,1.70
2022-09-30T11:45:23.913Z,1.63
2022-09-30T11:48:29.325Z,1.83
2022-09-30T11:51:06.014Z,1.60
2022-09-30T11:53:45.285Z,1.52
2022-09-30T11:56:45.618Z,1.58
2022-09-30T11:59:21.518Z,1.30
2022-09-30T12:01:52.398Z,1.45
2022-09-30T12:04:29.659Z,1.35
2022-09-30T12:07:06.152Z,1.35
2022-09-30T12:10:04.887Z,1.40
2022-09-30T12:12:32.666Z,1.23
2022-09-30T12:15:03.137Z,1.40
2022-09-30T12:17:40.631Z,1.40
2022-09-30T12:20:18.252Z,1.55
2022-09-30T12:22:47.827Z,1.40
2022-09-30T12:25:24.855Z,1.30
2022-09-30T12:28:25.304Z,1.17
2022-09-30T12:31:06.001Z,1.30
2022-09-30T12:34:02.133Z,1.57
2022-09-30T12:36:40.411Z,1.45
2022-09-30T12:39:44.772Z,1.55
2022-09-30T12:42:19.339Z,1.50
2022-09-30T12:45:32.438Z,1.27
2022-09-30T12:48:12.831Z,1.52
2022-09-30T12:50:53.024Z,1.45
2022-09-30T12:53:33.164Z,1.10
2022-09-30T12:56:16.186Z,1.60
2022-09-30T12:58:55.476Z,1.67
2022-09-30T13:01:32.966Z,1.30
2022-09-30T13:04:00.809Z,1.27
2022-09-30T13:06:48.813Z,1.30
2022-09-30T13:09:31.437Z,1.33
2022-09-30T13:11:59.480Z,1.35
2022-09-30T13:14:43.570Z,1.40
2022-09-30T13:17:10.781Z,1.40
2022-09-30T13:19:42.893Z,1.30
2022-09-30T13:22:21.402Z,1.33
2022-09-30T13:25:00.922Z,1.20
2022-09-30T13:27:44.353Z,1.40
2022-09-30T13:30:14.737Z,1.20
2022-09-30T13:32:48.333Z,1.30
2022-09-30T13:35:35.522Z,1.50
2022-09-30T13:38:55.498Z,1.30
2022-09-30T13:41:25.214Z,1.40
2022-09-30T13:44:06.225Z,1.13
2022-09-30T13:46:44.174Z,1.20
2022-09-30T13:49:18.675Z,1.25
2022-09-30T13:51:46.715Z,1.10
2022-09-30T13:54:32.274Z,1.20
2022-09-30T13:57:02.730Z,1.10
2022-09-30T13:59:51.132Z,1.67
2022-09-30T14:02:37.019Z,1.20
2022-09-30T14:05:25.127Z,1.85
2022-09-30T14:08:14.698Z,1.83
2022-09-30T14:11:10.301Z,1.20
2022-09-30T14:13:51.365Z,1.42
2022-09-30T14:16:27.897Z,1.35
2022-09-30T14:19:19.830Z,1.50
2022-09-30T14:21:50.967Z,1.27
2022-09-30T14:24:37.268Z,1.23
2022-09-30T14:27:28.124Z,1.60
2022-09-30T14:30:14.514Z,1.00
2022-09-30T14:32:53.722Z,0.90
2022-09-30T14:35:24.635Z,1.23
2022-09-30T14:37:57.082Z,1.40
2022-09-30T14:40:29.298Z,1.40
2022-09-30T14:43:03.467Z,1.17
2022-09-30T14:45:38.913Z,1.52
2022-09-30T14:48:32.657Z,1.17
2022-09-30T14:51:08.233Z,1.70
2022-09-30T14:53:44.623Z,1.27
2022-09-30T14:56:27.612Z,1.20
2022-09-30T14:58:58.277Z,1.70
2022-09-30T15:01:31.080Z,1.50
2022-09-30T15:04:26.554Z,1.35
2022-09-30T15:06:54.648Z,1.63
2022-09-30T15:09:40.452Z,1.90
2022-09-30T15:12:12.233Z,1.33
2022-09-30T15:14:50.321Z,2.00
2022-09-30T15:17:25.178Z,2.10
2022-09-30T15:19:52.902Z,2.42
2022-09-30T15:22:22.011Z,3.13
2022-09-30T15:24:52.882Z,2.47
2022-09-30T15:27:26.263Z,2.60
2022-09-30T15:29:58.659Z,2.35
2022-09-30T15:32:35.725Z,3.13
2022-09-30T15:35:08.809Z,2.72
2022-09-30T15:37:37.780Z,3.15
2022-09-30T15:40:33.716Z,2.75
2022-09-30T15:43:12.156Z,2.75
2022-09-30T15:45:44.117Z,3.03
2022-09-30T15:48:27.384Z,2.47
2022-09-30T15:50:58.449Z,2.78
2022-09-30T15:53:47.323Z,4.13
2022-09-30T15:56:20.430Z,3.75
2022-09-30T15:58:57.934Z,3.85
2022-09-30T16:01:45.798Z,3.28
2022-09-30T16:04:16.352Z,3.35
2022-09-30T16:06:48.833Z,3.53
2022-09-30T16:09:22.424Z,4.50
2022-09-30T16:11:59.483Z,4.07
2022-09-30T16:14:31.322Z,4.72
2022-09-30T16:17:01.276Z,6.25
2022-09-30T16:19:30.465Z,5.38
2022-09-30T16:21:58.631Z,4.93
2022-09-30T16:24:29.026Z,5.38
2022-09-30T16:26:59.337Z,8.13
2022-09-30T16:29:28.102Z,9.05
2022-09-30T16:31:56.984Z,8.93
2022-09-30T16:34:26.602Z,9.05
2022-09-30T16:37:14.834Z,10.25
2022-09-30T16:39:42.359Z,8.20
2022-09-30T16:42:14.838Z,8.55
2022-09-30T16:44:44.649Z,7.07
2022-09-30T16:47:15.116Z,6.93
2022-09-30T16:49:43.404Z,7.13
2022-09-30T16:52:11.712Z,7.43
2022-09-30T16:54:39.814Z,6.55
2022-09-30T16:57:07.203Z,7.07
2022-09-30T16:59:34.848Z,6.45
2022-09-30T17:02:02.487Z,6.25
2022-09-30T17:04:29.836Z,5.40
2022-09-30T17:06:59.145Z,5.45
2022-09-30T17:09:26.491Z,6.38
2022-09-30T17:11:53.752Z,5.78
2022-09-30T17:14:21.280Z,7.50
2022-09-30T17:16:48.524Z,6.93
2022-09-30T17:19:15.829Z,7.35
2022-09-30T17:21:43.138Z,7.88
2022-09-30T17:24:10.626Z,7.68
2022-09-30T17:26:40.093Z,7.32
2022-09-30T17:31:58.822Z,11.07
2022-09-30T17:34:28.284Z,12.98
2022-09-30T17:36:56.617Z,13.43
2022-09-30T17:39:26.661Z,15.35
2022-09-30T17:42:12.325Z,17.63
2022-09-30T17:44:39.692Z,19.80
2022-09-30T17:47:07.032Z,19.63
2022-09-30T17:49:35.800Z,20.63
2022-09-30T17:52:04.099Z,18.30
2022-09-30T17:54:32.475Z,21.27
2022-09-30T17:56:59.783Z,21.50
2022-09-30T17:59:28.768Z,21.17
2022-09-30T18:01:56.864Z,19.88
2022-09-30T18:04:28.164Z,23.02
2022-09-30T18:06:57.289Z,21.92
2022-09-30T18:09:24.650Z,20.00
2022-09-30T18:11:54.069Z,19.25
2022-09-30T18:14:21.576Z,19.30
2022-09-30T18:16:49.136Z,18.52
2022-09-30T18:19:17.396Z,18.88
2022-09-30T18:21:47.833Z,20.42
2022-09-30T18:24:16.229Z,22.92
2022-09-30T18:26:45.413Z,24.17
2022-09-30T18:29:14.148Z,22.27
2022-09-30T18:31:41.693Z,20.52
2022-09-30T18:34:09.479Z,19.65
2022-09-30T18:36:37.545Z,15.27
2022-09-30T18:39:05.370Z,13.75
2022-09-30T18:41:35.283Z,14.43
2022-09-30T18:44:03.388Z,11.85
2022-09-30T18:46:31.989Z,12.85
2022-09-30T18:48:59.256Z,11.95
2022-09-30T18:51:26.633Z,11.07
2022-09-30T18:53:58.447Z,9.82
2022-09-30T18:56:32.271Z,9.32
2022-09-30T18:59:01.376Z,9.32
2022-09-30T19:01:28.879Z,10.30
2022-09-30T19:04:03.245Z,10.32
2022-09-30T19:06:30.875Z,9.93
2022-09-30T19:08:58.247Z,11.05
2022-09-30T19:11:26.828Z,10.90
2022-09-30T19:13:56.491Z,10.27
2022-09-30T19:16:25.315Z,10.63
2022-09-30T19:18:53.151Z,6.72
2022-09-30T19:21:22.874Z,9.57
2022-09-30T19:23:50.346Z,9.55
2022-09-30T19:26:17.734Z,8.27
2022-09-30T19:28:44.864Z,6.78
2022-09-30T19:31:17.727Z,6.57
2022-09-30T19:33:56.136Z,6.80
2022-09-30T19:36:26.876Z,8.00
2022-09-30T19:39:08.917Z,6.88
2022-09-30T19:41:38.454Z,6.72
2022-09-30T19:44:05.677Z,7.50
2022-09-30T19:46:33.157Z,7.35
2022-09-30T19:49:00.351Z,6.85
2022-09-30T19:51:30.927Z,7.70
2022-09-30T19:54:06.308Z,5.40
2022-09-30T19:56:36.590Z,5.50
2022-09-30T19:59:04.619Z,5.63
2022-09-30T20:01:35.019Z,4.57
2022-09-30T20:04:05.467Z,4.43
2022-09-30T20:06:34.775Z,4.13
2022-09-30T20:09:04.441Z,3.75
2022-09-30T20:11:34.583Z,3.58
2022-09-30T20:14:22.286Z,3.30
2022-09-30T20:16:50.000Z,3.58
2022-09-30T20:19:18.639Z,3.22
2022-09-30T20:21:46.727Z,3.00
2022-09-30T20:24:15.627Z,3.30
2022-09-30T20:26:45.051Z,4.47
2022-09-30T20:29:13.399Z,3.92
2022-09-30T20:31:42.808Z,4.25
2022-09-30T20:34:13.462Z,3.80
2022-09-30T20:36:41.529Z,4.00
2022-09-30T20:39:08.679Z,4.00
2022-09-30T20:41:38.638Z,3.60
2022-09-30T20:44:08.610Z,3.55
2022-09-30T20:46:36.113Z,4.25
2022-09-30T20:49:04.550Z,4.57
2022-09-30T20:51:32.434Z,4.53
2022-09-30T20:54:01.078Z,5.50
2022-09-30T20:56:44.055Z,4.95
2022-09-30T20:59:17.383Z,4.43
2022-09-30T21:01:45.053Z,5.10
2022-09-30T21:04:12.255Z,7.05
2022-09-30T21:06:39.732Z,6.10
2022-09-30T21:09:06.979Z,6.75
2022-09-30T21:11:34.432Z,7.05
2022-09-30T21:14:02.092Z,6.65
2022-09-30T21:16:29.812Z,6.07
2022-09-30T21:18:57.127Z,6.88
2022-09-30T21:21:25.849Z,6.30
2022-09-30T21:23:58.871Z,7.13
2022-09-30T21:26:29.086Z,7.78
2022-09-30T21:29:02.304Z,6.93
2022-09-30T21:31:30.275Z,7.43
2022-09-30T21:33:59.992Z,4.15
2022-09-30T21:36:28.508Z,5.80
2022-09-30T21:39:03.360Z,4.82
2022-09-30T21:41:33.218Z,3.95
2022-09-30T21:44:01.594Z,3.78
2022-09-30T21:46:29.733Z,5.13
2022-09-30T21:49:17.419Z,3.97
2022-09-30T21:51:44.941Z,3.85
2022-09-30T21:54:14.122Z,4.32
2022-09-30T21:56:43.072Z,5.07
2022-09-30T21:59:11.768Z,4.60
2022-09-30T22:01:39.772Z,5.00
2022-09-30T22:04:07.765Z,5.05
2022-09-30T22:06:35.205Z,4.07
2022-09-30T22:09:03.191Z,4.38
2022-09-30T22:11:31.508Z,4.10
2022-09-30T22:14:00.490Z,4.72
2022-09-30T22:16:35.278Z,4.28
2022-09-30T22:19:05.411Z,3.67
2022-09-30T22:21:35.987Z,3.63
2022-09-30T22:24:05.853Z,3.58
2022-09-30T22:26:33.885Z,4.03
2022-09-30T22:29:05.253Z,3.15
2022-09-30T22:31:33.679Z,3.70
2022-09-30T22:34:23.250Z,3.40
2022-09-30T22:37:09.538Z,3.80
2022-09-30T22:39:37.272Z,3.80
2022-09-30T22:42:04.814Z,4.50
2022-09-30T22:44:34.031Z,4.20
2022-09-30T22:47:02.127Z,3.60
2022-09-30T22:49:33.511Z,3.92
2022-09-30T22:54:30.446Z,3.45
2022-09-30T22:56:59.435Z,3.33
2022-09-30T22:59:28.798Z,3.65
2022-09-30T23:01:59.607Z,3.50
2022-09-30T23:04:29.140Z,3.15
2022-09-30T23:06:56.634Z,3.40
2022-09-30T23:09:24.363Z,3.40
2022-09-30T23:11:54.525Z,3.70
2022-09-30T23:14:22.870Z,3.22
2022-09-30T23:16:50.996Z,3.60
2022-09-30T23:19:20.530Z,3.22
2022-09-30T23:21:47.912Z,2.78
2022-09-30T23:24:15.937Z,3.10
2022-09-30T23:26:43.885Z,3.40
2022-09-30T23:29:13.424Z,3.38
2022-09-30T23:31:41.342Z,3.30
2022-09-30T23:34:09.362Z,3.10
2022-09-30T23:36:37.845Z,3.63
2022-09-30T23:39:12.930Z,3.15
2022-09-30T23:41:41.048Z,2.83
2022-09-30T23:44:10.133Z,3.03
2022-09-30T23:46:37.604Z,2.28
2022-09-30T23:49:05.148Z,2.97
2022-09-30T23:51:34.455Z,2.92
2022-09-30T23:54:02.466Z,3.38
2022-09-30T23:56:29.779Z,3.70
2022-09-30T23:58:57.490Z,2.67
